sensor_id;sensor_type;location;lat;lon;timestamp;pressure;altitude;pressure_sealevel;temperature
67822;BMP180;54434;50.096;20.082;2023-04-25T00:00:14;97713.00;;;11.58
67822;BMP180;54434;50.096;20.082;2023-04-25T00:03:11;97713.20;;;11.58
67822;BMP180;54434;50.096;20.082;2023-04-25T00:05:48;97715.00;;;11.56
67822;BMP180;54434;50.096;20.082;2023-04-25T00:08:26;97715.40;;;11.56
67822;BMP180;54434;50.096;20.082;2023-04-25T00:11:04;97713.60;;;11.60
67822;BMP180;54434;50.096;20.082;2023-04-25T00:13:40;97710.40;;;11.60
67822;BMP180;54434;50.096;20.082;2023-04-25T00:16:17;97708.20;;;11.60
67822;BMP180;54434;50.096;20.082;2023-04-25T00:18:54;97709.80;;;11.60
67822;BMP180;54434;50.096;20.082;2023-04-25T00:21:30;97706.80;;;11.60
67822;BMP180;54434;50.096;20.082;2023-04-25T00:24:09;97709.00;;;11.60
67822;BMP180;54434;50.096;20.082;2023-04-25T00:26:45;97705.80;;;11.60
67822;BMP180;54434;50.096;20.082;2023-04-25T00:29:21;97706.60;;;11.60
67822;BMP180;54434;50.096;20.082;2023-04-25T00:31:57;97706.60;;;11.60
67822;BMP180;54434;50.096;20.082;2023-04-25T00:34:34;97708.00;;;11.54
67822;BMP180;54434;50.096;20.082;2023-04-25T00:37:11;97709.00;;;11.50
67822;BMP180;54434;50.096;20.082;2023-04-25T00:39:47;97712.60;;;11.50
67822;BMP180;54434;50.096;20.082;2023-04-25T00:42:24;97712.80;;;11.40
67822;BMP180;54434;50.096;20.082;2023-04-25T00:45:02;97714.20;;;11.30
67822;BMP180;54434;50.096;20.082;2023-04-25T00:47:41;97719.20;;;11.26
67822;BMP180;54434;50.096;20.082;2023-04-25T00:50:17;97717.40;;;11.20
67822;BMP180;54434;50.096;20.082;2023-04-25T00:52:57;97714.40;;;11.10
67822;BMP180;54434;50.096;20.082;2023-04-25T00:55:33;97713.80;;;11.00
67822;BMP180;54434;50.096;20.082;2023-04-25T00:58:11;97712.80;;;11.00
67822;BMP180;54434;50.096;20.082;2023-04-25T01:00:49;97716.60;;;10.90
67822;BMP180;54434;50.096;20.082;2023-04-25T01:03:27;97716.20;;;10.82
67822;BMP180;54434;50.096;20.082;2023-04-25T01:06:05;97715.00;;;10.80
67822;BMP180;54434;50.096;20.082;2023-04-25T01:08:42;97717.20;;;10.78
67822;BMP180;54434;50.096;20.082;2023-04-25T01:11:18;97713.00;;;10.70
67822;BMP180;54434;50.096;20.082;2023-04-25T01:13:55;97715.80;;;10.70
67822;BMP180;54434;50.096;20.082;2023-04-25T01:16:33;97716.40;;;10.62
67822;BMP180;54434;50.096;20.082;2023-04-25T01:19:17;97718.00;;;10.60
67822;BMP180;54434;50.096;20.082;2023-04-25T01:21:55;97723.40;;;10.60
67822;BMP180;54434;50.096;20.082;2023-04-25T01:24:32;97722.40;;;10.50
67822;BMP180;54434;50.096;20.082;2023-04-25T01:27:09;97723.80;;;10.50
67822;BMP180;54434;50.096;20.082;2023-04-25T01:29:47;97726.80;;;10.50
67822;BMP180;54434;50.096;20.082;2023-04-25T01:32:24;97729.20;;;10.40
67822;BMP180;54434;50.096;20.082;2023-04-25T01:35:02;97727.40;;;10.40
67822;BMP180;54434;50.096;20.082;2023-04-25T01:37:40;97733.00;;;10.40
67822;BMP180;54434;50.096;20.082;2023-04-25T01:40:19;97727.80;;;10.32
67822;BMP180;54434;50.096;20.082;2023-04-25T01:42:57;97733.60;;;10.30
67822;BMP180;54434;50.096;20.082;2023-04-25T01:45:34;97735.40;;;10.30
67822;BMP180;54434;50.096;20.082;2023-04-25T01:48:13;97731.00;;;10.30
67822;BMP180;54434;50.096;20.082;2023-04-25T01:50:51;97731.00;;;10.26
67822;BMP180;54434;50.096;20.082;2023-04-25T01:53:28;97731.40;;;10.20
67822;BMP180;54434;50.096;20.082;2023-04-25T01:56:05;97735.40;;;10.20
67822;BMP180;54434;50.096;20.082;2023-04-25T01:58:42;97740.00;;;10.20
67822;BMP180;54434;50.096;20.082;2023-04-25T02:02:00;97736.00;;;10.10
67822;BMP180;54434;50.096;20.082;2023-04-25T02:04:38;97736.40;;;10.10
67822;BMP180;54434;50.096;20.082;2023-04-25T02:07:15;97741.20;;;10.10
67822;BMP180;54434;50.096;20.082;2023-04-25T02:09:57;97740.60;;;10.10
67822;BMP180;54434;50.096;20.082;2023-04-25T02:12:36;97746.20;;;10.00
67822;BMP180;54434;50.096;20.082;2023-04-25T02:15:53;97744.20;;;10.00
67822;BMP180;54434;50.096;20.082;2023-04-25T02:18:30;97743.60;;;10.00
67822;BMP180;54434;50.096;20.082;2023-04-25T02:21:08;97746.60;;;9.90
67822;BMP180;54434;50.096;20.082;2023-04-25T02:23:44;97744.60;;;9.90
67822;BMP180;54434;50.096;20.082;2023-04-25T02:26:24;97747.20;;;9.90
67822;BMP180;54434;50.096;20.082;2023-04-25T02:29:00;97745.20;;;9.88
67822;BMP180;54434;50.096;20.082;2023-04-25T02:31:37;97743.00;;;9.80
67822;BMP180;54434;50.096;20.082;2023-04-25T02:34:13;97749.20;;;9.80
67822;BMP180;54434;50.096;20.082;2023-04-25T02:36:51;97744.20;;;9.80
67822;BMP180;54434;50.096;20.082;2023-04-25T02:39:27;97745.20;;;9.80
67822;BMP180;54434;50.096;20.082;2023-04-25T02:42:04;97744.40;;;9.80
67822;BMP180;54434;50.096;20.082;2023-04-25T02:44:40;97743.00;;;9.80
67822;BMP180;54434;50.096;20.082;2023-04-25T02:47:17;97743.20;;;9.76
67822;BMP180;54434;50.096;20.082;2023-04-25T02:49:54;97742.40;;;9.70
67822;BMP180;54434;50.096;20.082;2023-04-25T02:52:30;97743.40;;;9.70
67822;BMP180;54434;50.096;20.082;2023-04-25T02:55:13;97745.80;;;9.70
67822;BMP180;54434;50.096;20.082;2023-04-25T02:57:50;97746.80;;;9.70
67822;BMP180;54434;50.096;20.082;2023-04-25T03:00:36;97744.80;;;9.70
67822;BMP180;54434;50.096;20.082;2023-04-25T03:03:13;97739.40;;;9.68
67822;BMP180;54434;50.096;20.082;2023-04-25T03:05:53;97742.60;;;9.64
67822;BMP180;54434;50.096;20.082;2023-04-25T03:08:33;97738.80;;;9.60
67822;BMP180;54434;50.096;20.082;2023-04-25T03:11:09;97736.20;;;9.60
67822;BMP180;54434;50.096;20.082;2023-04-25T03:13:46;97737.00;;;9.60
67822;BMP180;54434;50.096;20.082;2023-04-25T03:16:23;97734.60;;;9.60
67822;BMP180;54434;50.096;20.082;2023-04-25T03:19:00;97730.00;;;9.60
67822;BMP180;54434;50.096;20.082;2023-04-25T03:21:38;97728.40;;;9.60
67822;BMP180;54434;50.096;20.082;2023-04-25T03:24:14;97732.20;;;9.60
67822;BMP180;54434;50.096;20.082;2023-04-25T03:26:51;97734.60;;;9.60
67822;BMP180;54434;50.096;20.082;2023-04-25T03:29:28;97739.40;;;9.60
67822;BMP180;54434;50.096;20.082;2023-04-25T03:32:05;97737.60;;;9.60
67822;BMP180;54434;50.096;20.082;2023-04-25T03:34:41;97745.60;;;9.60
67822;BMP180;54434;50.096;20.082;2023-04-25T03:37:18;97745.80;;;9.60
67822;BMP180;54434;50.096;20.082;2023-04-25T03:39:54;97745.60;;;9.60
67822;BMP180;54434;50.096;20.082;2023-04-25T03:42:32;97748.40;;;9.60
67822;BMP180;54434;50.096;20.082;2023-04-25T03:45:12;97752.80;;;9.60
67822;BMP180;54434;50.096;20.082;2023-04-25T03:47:48;97752.20;;;9.60
67822;BMP180;54434;50.096;20.082;2023-04-25T03:50:25;97759.80;;;9.60
67822;BMP180;54434;50.096;20.082;2023-04-25T03:53:03;97756.60;;;9.60
67822;BMP180;54434;50.096;20.082;2023-04-25T03:55:53;97757.80;;;9.60
67822;BMP180;54434;50.096;20.082;2023-04-25T03:58:29;97767.40;;;9.60
67822;BMP180;54434;50.096;20.082;2023-04-25T04:01:06;97761.00;;;9.60
67822;BMP180;54434;50.096;20.082;2023-04-25T04:03:44;97769.20;;;9.60
67822;BMP180;54434;50.096;20.082;2023-04-25T04:06:21;97770.40;;;9.60
67822;BMP180;54434;50.096;20.082;2023-04-25T04:09:02;97772.00;;;9.64
67822;BMP180;54434;50.096;20.082;2023-04-25T04:11:42;97776.00;;;9.62
67822;BMP180;54434;50.096;20.082;2023-04-25T04:14:18;97778.40;;;9.60
67822;BMP180;54434;50.096;20.082;2023-04-25T04:16:56;97785.80;;;9.66
67822;BMP180;54434;50.096;20.082;2023-04-25T04:19:33;97788.60;;;9.60
67822;BMP180;54434;50.096;20.082;2023-04-25T04:22:17;97794.40;;;9.60
67822;BMP180;54434;50.096;20.082;2023-04-25T04:24:54;97794.20;;;9.60
67822;BMP180;54434;50.096;20.082;2023-04-25T04:28:12;97802.00;;;9.56
67822;BMP180;54434;50.096;20.082;2023-04-25T04:30:57;97811.80;;;9.50
67822;BMP180;54434;50.096;20.082;2023-04-25T04:33:36;97810.80;;;9.50
67822;BMP180;54434;50.096;20.082;2023-04-25T04:36:15;97809.40;;;9.50
67822;BMP180;54434;50.096;20.082;2023-04-25T04:38:55;97816.80;;;9.50
67822;BMP180;54434;50.096;20.082;2023-04-25T04:41:43;97814.80;;;9.46
67822;BMP180;54434;50.096;20.082;2023-04-25T04:44:37;97817.80;;;9.40
67822;BMP180;54434;50.096;20.082;2023-04-25T04:47:21;97819.00;;;9.40
67822;BMP180;54434;50.096;20.082;2023-04-25T04:50:11;97819.00;;;9.40
67822;BMP180;54434;50.096;20.082;2023-04-25T04:53:06;97824.20;;;9.38
67822;BMP180;54434;50.096;20.082;2023-04-25T04:56:07;97827.00;;;9.32
67822;BMP180;54434;50.096;20.082;2023-04-25T04:59:13;97832.60;;;9.30
67822;BMP180;54434;50.096;20.082;2023-04-25T05:02:08;97827.40;;;9.30
67822;BMP180;54434;50.096;20.082;2023-04-25T05:05:00;97832.40;;;9.30
67822;BMP180;54434;50.096;20.082;2023-04-25T05:08:04;97833.80;;;9.30
67822;BMP180;54434;50.096;20.082;2023-04-25T05:11:30;97836.00;;;9.30
67822;BMP180;54434;50.096;20.082;2023-04-25T05:14:20;97832.20;;;9.30
67822;BMP180;54434;50.096;20.082;2023-04-25T05:17:35;97834.40;;;9.36
67822;BMP180;54434;50.096;20.082;2023-04-25T05:20:53;97835.20;;;9.40
67822;BMP180;54434;50.096;20.082;2023-04-25T05:23:42;97833.00;;;9.40
67822;BMP180;54434;50.096;20.082;2023-04-25T05:26:38;97832.20;;;9.50
67822;BMP180;54434;50.096;20.082;2023-04-25T05:29:30;97831.00;;;9.50
67822;BMP180;54434;50.096;20.082;2023-04-25T05:35:09;97839.20;;;9.50
67822;BMP180;54434;50.096;20.082;2023-04-25T05:37:53;97837.80;;;9.48
67822;BMP180;54434;50.096;20.082;2023-04-25T05:40:41;97843.80;;;9.42
67822;BMP180;54434;50.096;20.082;2023-04-25T05:43:36;97848.20;;;9.40
67822;BMP180;54434;50.096;20.082;2023-04-25T05:46:29;97852.60;;;9.40
67822;BMP180;54434;50.096;20.082;2023-04-25T05:49:58;97854.40;;;9.40
67822;BMP180;54434;50.096;20.082;2023-04-25T05:52:51;97855.00;;;9.40
67822;BMP180;54434;50.096;20.082;2023-04-25T05:55:43;97860.60;;;9.40
67822;BMP180;54434;50.096;20.082;2023-04-25T05:58:36;97860.60;;;9.40
67822;BMP180;54434;50.096;20.082;2023-04-25T06:01:13;97867.00;;;9.40
67822;BMP180;54434;50.096;20.082;2023-04-25T06:03:50;97876.20;;;9.30
67822;BMP180;54434;50.096;20.082;2023-04-25T06:06:28;97877.80;;;9.30
67822;BMP180;54434;50.096;20.082;2023-04-25T06:09:06;97878.40;;;9.20
67822;BMP180;54434;50.096;20.082;2023-04-25T06:11:42;97879.80;;;9.20
67822;BMP180;54434;50.096;20.082;2023-04-25T06:14:19;97884.00;;;9.18
67822;BMP180;54434;50.096;20.082;2023-04-25T06:16:56;97880.00;;;9.10
67822;BMP180;54434;50.096;20.082;2023-04-25T06:19:34;97880.60;;;9.10
67822;BMP180;54434;50.096;20.082;2023-04-25T06:22:11;97882.40;;;9.10
67822;BMP180;54434;50.096;20.082;2023-04-25T06:24:48;97880.80;;;9.00
67822;BMP180;54434;50.096;20.082;2023-04-25T06:27:24;97885.40;;;9.00
67822;BMP180;54434;50.096;20.082;2023-04-25T06:30:01;97884.80;;;9.00
67822;BMP180;54434;50.096;20.082;2023-04-25T06:32:38;97887.80;;;9.00
67822;BMP180;54434;50.096;20.082;2023-04-25T06:35:15;97886.80;;;9.00
67822;BMP180;54434;50.096;20.082;2023-04-25T06:37:51;97890.60;;;9.00
67822;BMP180;54434;50.096;20.082;2023-04-25T06:40:29;97891.20;;;9.00
67822;BMP180;54434;50.096;20.082;2023-04-25T06:43:06;97892.60;;;9.00
67822;BMP180;54434;50.096;20.082;2023-04-25T06:45:56;97897.20;;;9.08
67822;BMP180;54434;50.096;20.082;2023-04-25T06:48:34;97899.60;;;9.08
67822;BMP180;54434;50.096;20.082;2023-04-25T06:51:12;97895.80;;;9.08
67822;BMP180;54434;50.096;20.082;2023-04-25T06:53:49;97900.40;;;9.06
67822;BMP180;54434;50.096;20.082;2023-04-25T06:56:33;97902.20;;;9.10
67822;BMP180;54434;50.096;20.082;2023-04-25T06:59:14;97900.20;;;9.10
67822;BMP180;54434;50.096;20.082;2023-04-25T07:01:52;97903.60;;;9.20
67822;BMP180;54434;50.096;20.082;2023-04-25T07:04:32;97903.00;;;9.20
67822;BMP180;54434;50.096;20.082;2023-04-25T07:07:09;97905.80;;;9.22
67822;BMP180;54434;50.096;20.082;2023-04-25T07:09:49;97905.80;;;9.30
67822;BMP180;54434;50.096;20.082;2023-04-25T07:12:26;97900.20;;;9.30
67822;BMP180;54434;50.096;20.082;2023-04-25T07:15:03;97905.80;;;9.40
67822;BMP180;54434;50.096;20.082;2023-04-25T07:17:41;97901.80;;;9.50
67822;BMP180;54434;50.096;20.082;2023-04-25T07:20:18;97900.40;;;9.60
67822;BMP180;54434;50.096;20.082;2023-04-25T07:22:55;97900.40;;;9.70
67822;BMP180;54434;50.096;20.082;2023-04-25T07:25:32;97897.40;;;9.80
67822;BMP180;54434;50.096;20.082;2023-04-25T07:28:10;97897.40;;;9.80
67822;BMP180;54434;50.096;20.082;2023-04-25T07:30:47;97899.20;;;9.80
67822;BMP180;54434;50.096;20.082;2023-04-25T07:33:23;97902.00;;;9.80
67822;BMP180;54434;50.096;20.082;2023-04-25T07:36:00;97904.60;;;9.80
67822;BMP180;54434;50.096;20.082;2023-04-25T07:38:37;97905.20;;;9.80
67822;BMP180;54434;50.096;20.082;2023-04-25T07:41:14;97907.60;;;9.90
67822;BMP180;54434;50.096;20.082;2023-04-25T07:43:50;97907.00;;;10.00
67822;BMP180;54434;50.096;20.082;2023-04-25T07:46:27;97911.80;;;10.10
67822;BMP180;54434;50.096;20.082;2023-04-25T07:49:03;97911.00;;;10.20
67822;BMP180;54434;50.096;20.082;2023-04-25T07:51:41;97913.00;;;10.20
67822;BMP180;54434;50.096;20.082;2023-04-25T07:54:21;97911.40;;;10.30
67822;BMP180;54434;50.096;20.082;2023-04-25T07:57:03;97909.40;;;10.40
67822;BMP180;54434;50.096;20.082;2023-04-25T07:59:41;97906.20;;;10.70
67822;BMP180;54434;50.096;20.082;2023-04-25T08:02:18;97910.40;;;10.94
67822;BMP180;54434;50.096;20.082;2023-04-25T08:04:55;97912.40;;;11.20
67822;BMP180;54434;50.096;20.082;2023-04-25T08:07:32;97904.80;;;11.36
67822;BMP180;54434;50.096;20.082;2023-04-25T08:10:11;97907.80;;;11.50
67822;BMP180;54434;50.096;20.082;2023-04-25T08:12:49;97904.80;;;11.70
67822;BMP180;54434;50.096;20.082;2023-04-25T08:15:25;97904.40;;;11.90
67822;BMP180;54434;50.096;20.082;2023-04-25T08:18:02;97902.00;;;12.10
67822;BMP180;54434;50.096;20.082;2023-04-25T08:20:39;97902.00;;;12.24
67822;BMP180;54434;50.096;20.082;2023-04-25T08:23:17;97902.20;;;12.40
67822;BMP180;54434;50.096;20.082;2023-04-25T08:26:11;97906.40;;;12.50
67822;BMP180;54434;50.096;20.082;2023-04-25T08:28:50;97907.40;;;12.60
67822;BMP180;54434;50.096;20.082;2023-04-25T08:31:27;97907.40;;;12.70
67822;BMP180;54434;50.096;20.082;2023-04-25T08:34:08;97912.00;;;12.64
67822;BMP180;54434;50.096;20.082;2023-04-25T08:36:51;97912.00;;;12.50
67822;BMP180;54434;50.096;20.082;2023-04-25T08:39:45;97912.00;;;12.50
67822;BMP180;54434;50.096;20.082;2023-04-25T08:42:34;97913.60;;;12.40
67822;BMP180;54434;50.096;20.082;2023-04-25T08:45:13;97916.40;;;12.32
67822;BMP180;54434;50.096;20.082;2023-04-25T08:47:53;97915.20;;;12.30
67822;BMP180;54434;50.096;20.082;2023-04-25T08:50:32;97922.80;;;12.20
67822;BMP180;54434;50.096;20.082;2023-04-25T08:53:13;97918.20;;;12.20
67822;BMP180;54434;50.096;20.082;2023-04-25T08:55:56;97920.40;;;12.10
67822;BMP180;54434;50.096;20.082;2023-04-25T08:58:35;97917.20;;;12.10
67822;BMP180;54434;50.096;20.082;2023-04-25T09:01:12;97925.40;;;12.08
67822;BMP180;54434;50.096;20.082;2023-04-25T09:03:54;97934.40;;;12.00
67822;BMP180;54434;50.096;20.082;2023-04-25T09:06:32;97935.20;;;11.98
67822;BMP180;54434;50.096;20.082;2023-04-25T09:09:11;97936.40;;;11.90
67822;BMP180;54434;50.096;20.082;2023-04-25T09:11:48;97936.40;;;11.90
67822;BMP180;54434;50.096;20.082;2023-04-25T09:14:26;97934.20;;;11.78
67822;BMP180;54434;50.096;20.082;2023-04-25T09:17:11;97933.00;;;11.70
67822;BMP180;54434;50.096;20.082;2023-04-25T09:20:06;97933.00;;;11.70
67822;BMP180;54434;50.096;20.082;2023-04-25T09:22:47;97925.00;;;11.80
67822;BMP180;54434;50.096;20.082;2023-04-25T09:25:23;97929.20;;;11.80
67822;BMP180;54434;50.096;20.082;2023-04-25T09:28:04;97934.00;;;11.80
67822;BMP180;54434;50.096;20.082;2023-04-25T09:30:41;97933.00;;;11.74
67822;BMP180;54434;50.096;20.082;2023-04-25T09:33:31;97932.40;;;11.60
67822;BMP180;54434;50.096;20.082;2023-04-25T09:36:10;97934.80;;;11.50
67822;BMP180;54434;50.096;20.082;2023-04-25T09:39:15;97934.20;;;11.40
67822;BMP180;54434;50.096;20.082;2023-04-25T09:42:00;97937.80;;;11.40
67822;BMP180;54434;50.096;20.082;2023-04-25T09:44:37;97939.60;;;11.40
67822;BMP180;54434;50.096;20.082;2023-04-25T09:47:19;97940.80;;;11.40
67822;BMP180;54434;50.096;20.082;2023-04-25T09:49:57;97938.80;;;11.40
67822;BMP180;54434;50.096;20.082;2023-04-25T09:52:34;97935.00;;;11.40
67822;BMP180;54434;50.096;20.082;2023-04-25T09:55:21;97936.00;;;11.30
67822;BMP180;54434;50.096;20.082;2023-04-25T09:58:03;97941.60;;;11.30
67822;BMP180;54434;50.096;20.082;2023-04-25T10:00:42;97939.80;;;11.30
67822;BMP180;54434;50.096;20.082;2023-04-25T10:03:28;97935.60;;;11.20
67822;BMP180;54434;50.096;20.082;2023-04-25T10:06:26;97936.60;;;11.16
67822;BMP180;54434;50.096;20.082;2023-04-25T10:09:04;97932.60;;;11.10
67822;BMP180;54434;50.096;20.082;2023-04-25T10:11:44;97935.40;;;11.20
67822;BMP180;54434;50.096;20.082;2023-04-25T10:14:22;97935.20;;;11.20
67822;BMP180;54434;50.096;20.082;2023-04-25T10:17:01;97932.80;;;11.30
67822;BMP180;54434;50.096;20.082;2023-04-25T10:19:38;97934.00;;;11.50
67822;BMP180;54434;50.096;20.082;2023-04-25T10:22:26;97939.20;;;11.60
67822;BMP180;54434;50.096;20.082;2023-04-25T10:25:08;97938.00;;;11.68
67822;BMP180;54434;50.096;20.082;2023-04-25T10:27:45;97936.60;;;11.70
67822;BMP180;54434;50.096;20.082;2023-04-25T10:30:21;97934.00;;;11.74
67822;BMP180;54434;50.096;20.082;2023-04-25T10:33:00;97930.20;;;11.82
67822;BMP180;54434;50.096;20.082;2023-04-25T10:35:37;97935.20;;;11.90
67822;BMP180;54434;50.096;20.082;2023-04-25T10:38:17;97934.60;;;11.90
67822;BMP180;54434;50.096;20.082;2023-04-25T10:41:11;97932.60;;;11.80
67822;BMP180;54434;50.096;20.082;2023-04-25T10:43:49;97929.60;;;11.80
67822;BMP180;54434;50.096;20.082;2023-04-25T10:46:29;97928.00;;;11.70
67822;BMP180;54434;50.096;20.082;2023-04-25T10:49:09;97929.20;;;11.60
67822;BMP180;54434;50.096;20.082;2023-04-25T10:51:49;97925.20;;;11.60
67822;BMP180;54434;50.096;20.082;2023-04-25T10:54:29;97918.00;;;11.60
67822;BMP180;54434;50.096;20.082;2023-04-25T10:57:06;97915.40;;;11.70
67822;BMP180;54434;50.096;20.082;2023-04-25T10:59:43;97919.20;;;11.90
67822;BMP180;54434;50.096;20.082;2023-04-25T11:02:19;97918.20;;;12.08
67822;BMP180;54434;50.096;20.082;2023-04-25T11:04:56;97921.00;;;12.26
67822;BMP180;54434;50.096;20.082;2023-04-25T11:07:48;97923.80;;;12.50
67822;BMP180;54434;50.096;20.082;2023-04-25T11:10:43;97916.00;;;12.58
67822;BMP180;54434;50.096;20.082;2023-04-25T11:13:23;97913.60;;;12.60
67822;BMP180;54434;50.096;20.082;2023-04-25T11:16:09;97915.60;;;12.60
67822;BMP180;54434;50.096;20.082;2023-04-25T11:18:52;97917.40;;;12.66
67822;BMP180;54434;50.096;20.082;2023-04-25T11:21:30;97917.60;;;12.60
67822;BMP180;54434;50.096;20.082;2023-04-25T11:24:08;97913.80;;;12.60
67822;BMP180;54434;50.096;20.082;2023-04-25T11:26:48;97914.20;;;12.52
67822;BMP180;54434;50.096;20.082;2023-04-25T11:29:27;97915.20;;;12.50
67822;BMP180;54434;50.096;20.082;2023-04-25T11:32:04;97914.40;;;12.50
67822;BMP180;54434;50.096;20.082;2023-04-25T11:34:44;97913.40;;;12.50
67822;BMP180;54434;50.096;20.082;2023-04-25T11:37:21;97918.00;;;12.50
67822;BMP180;54434;50.096;20.082;2023-04-25T11:39:57;97914.20;;;12.50
67822;BMP180;54434;50.096;20.082;2023-04-25T11:42:34;97912.40;;;12.46
67822;BMP180;54434;50.096;20.082;2023-04-25T11:45:12;97918.60;;;12.50
67822;BMP180;54434;50.096;20.082;2023-04-25T11:47:50;97916.20;;;12.50
67822;BMP180;54434;50.096;20.082;2023-04-25T11:50:29;97918.00;;;12.58
67822;BMP180;54434;50.096;20.082;2023-04-25T11:53:06;97915.60;;;12.50
67822;BMP180;54434;50.096;20.082;2023-04-25T11:55:43;97915.80;;;12.40
67822;BMP180;54434;50.096;20.082;2023-04-25T11:58:19;97916.20;;;12.40
67822;BMP180;54434;50.096;20.082;2023-04-25T12:00:56;97914.80;;;12.40
67822;BMP180;54434;50.096;20.082;2023-04-25T12:03:37;97917.80;;;12.28
67822;BMP180;54434;50.096;20.082;2023-04-25T12:06:23;97911.80;;;12.20
67822;BMP180;54434;50.096;20.082;2023-04-25T12:09:09;97915.00;;;12.10
67822;BMP180;54434;50.096;20.082;2023-04-25T12:11:53;97914.20;;;12.06
67822;BMP180;54434;50.096;20.082;2023-04-25T12:14:33;97915.60;;;12.00
67822;BMP180;54434;50.096;20.082;2023-04-25T12:17:09;97918.80;;;11.90
67822;BMP180;54434;50.096;20.082;2023-04-25T12:19:49;97914.40;;;11.90
67822;BMP180;54434;50.096;20.082;2023-04-25T12:22:27;97912.00;;;11.90
67822;BMP180;54434;50.096;20.082;2023-04-25T12:25:06;97910.00;;;11.80
67822;BMP180;54434;50.096;20.082;2023-04-25T12:27:43;97905.40;;;11.70
67822;BMP180;54434;50.096;20.082;2023-04-25T12:30:19;97907.80;;;11.70
67822;BMP180;54434;50.096;20.082;2023-04-25T12:32:55;97909.80;;;11.64
67822;BMP180;54434;50.096;20.082;2023-04-25T12:35:33;97912.80;;;11.60
67822;BMP180;54434;50.096;20.082;2023-04-25T12:38:09;97911.20;;;11.60
67822;BMP180;54434;50.096;20.082;2023-04-25T12:40:46;97912.40;;;11.50
67822;BMP180;54434;50.096;20.082;2023-04-25T12:43:22;97909.40;;;11.42
67822;BMP180;54434;50.096;20.082;2023-04-25T12:46:00;97906.00;;;11.40
67822;BMP180;54434;50.096;20.082;2023-04-25T12:48:36;97911.60;;;11.30
67822;BMP180;54434;50.096;20.082;2023-04-25T12:51:13;97915.00;;;11.26
67822;BMP180;54434;50.096;20.082;2023-04-25T12:53:49;97919.00;;;11.20
67822;BMP180;54434;50.096;20.082;2023-04-25T12:56:26;97916.20;;;11.10
67822;BMP180;54434;50.096;20.082;2023-04-25T12:59:03;97921.60;;;11.10
67822;BMP180;54434;50.096;20.082;2023-04-25T13:01:39;97925.20;;;10.94
67822;BMP180;54434;50.096;20.082;2023-04-25T13:04:16;97923.60;;;10.80
67822;BMP180;54434;50.096;20.082;2023-04-25T13:06:53;97919.00;;;10.70
67822;BMP180;54434;50.096;20.082;2023-04-25T13:09:30;97920.60;;;10.68
67822;BMP180;54434;50.096;20.082;2023-04-25T13:12:07;97917.40;;;10.60
67822;BMP180;54434;50.096;20.082;2023-04-25T13:14:43;97919.20;;;10.50
67822;BMP180;54434;50.096;20.082;2023-04-25T13:17:20;97919.00;;;10.50
67822;BMP180;54434;50.096;20.082;2023-04-25T13:19:56;97922.00;;;10.50
67822;BMP180;54434;50.096;20.082;2023-04-25T13:22:32;97926.60;;;10.60
67822;BMP180;54434;50.096;20.082;2023-04-25T13:25:10;97918.80;;;10.60
67822;BMP180;54434;50.096;20.082;2023-04-25T13:27:47;97918.20;;;10.60
67822;BMP180;54434;50.096;20.082;2023-04-25T13:30:24;97917.80;;;10.60
67822;BMP180;54434;50.096;20.082;2023-04-25T13:33:00;97919.40;;;10.60
67822;BMP180;54434;50.096;20.082;2023-04-25T13:35:39;97912.80;;;10.60
67822;BMP180;54434;50.096;20.082;2023-04-25T13:38:15;97914.00;;;10.70
67822;BMP180;54434;50.096;20.082;2023-04-25T13:40:53;97913.40;;;10.70
67822;BMP180;54434;50.096;20.082;2023-04-25T13:43:29;97922.20;;;10.80
67822;BMP180;54434;50.096;20.082;2023-04-25T13:46:09;97920.80;;;10.80
67822;BMP180;54434;50.096;20.082;2023-04-25T13:49:06;97925.60;;;10.80
67822;BMP180;54434;50.096;20.082;2023-04-25T13:51:47;97916.60;;;10.80
67822;BMP180;54434;50.096;20.082;2023-04-25T13:54:23;97914.80;;;10.90
67822;BMP180;54434;50.096;20.082;2023-04-25T13:57:00;97916.20;;;11.00
67822;BMP180;54434;50.096;20.082;2023-04-25T13:59:37;97917.00;;;11.10
67822;BMP180;54434;50.096;20.082;2023-04-25T14:02:13;97921.80;;;11.20
67822;BMP180;54434;50.096;20.082;2023-04-25T14:04:50;97919.60;;;11.20
67822;BMP180;54434;50.096;20.082;2023-04-25T14:07:28;97923.20;;;11.30
67822;BMP180;54434;50.096;20.082;2023-04-25T14:10:07;97923.00;;;11.30
67822;BMP180;54434;50.096;20.082;2023-04-25T14:12:43;97924.80;;;11.30
67822;BMP180;54434;50.096;20.082;2023-04-25T14:15:20;97922.20;;;11.30
67822;BMP180;54434;50.096;20.082;2023-04-25T14:17:56;97926.40;;;11.30
67822;BMP180;54434;50.096;20.082;2023-04-25T14:20:33;97924.20;;;11.30
67822;BMP180;54434;50.096;20.082;2023-04-25T14:23:10;97925.20;;;11.32
67822;BMP180;54434;50.096;20.082;2023-04-25T14:25:47;97926.00;;;11.36
67822;BMP180;54434;50.096;20.082;2023-04-25T14:28:23;97925.20;;;11.38
67822;BMP180;54434;50.096;20.082;2023-04-25T14:31:00;97926.40;;;11.40
67822;BMP180;54434;50.096;20.082;2023-04-25T14:33:37;97927.00;;;11.32
67822;BMP180;54434;50.096;20.082;2023-04-25T14:36:16;97925.40;;;11.30
67822;BMP180;54434;50.096;20.082;2023-04-25T14:38:53;97922.80;;;11.30
67822;BMP180;54434;50.096;20.082;2023-04-25T14:41:30;97921.60;;;11.30
67822;BMP180;54434;50.096;20.082;2023-04-25T14:44:06;97924.00;;;11.20
67822;BMP180;54434;50.096;20.082;2023-04-25T14:46:43;97928.20;;;11.20
67822;BMP180;54434;50.096;20.082;2023-04-25T14:49:20;97926.60;;;11.20
67822;BMP180;54434;50.096;20.082;2023-04-25T14:51:57;97933.00;;;11.20
67822;BMP180;54434;50.096;20.082;2023-04-25T14:54:33;97935.80;;;11.10
67822;BMP180;54434;50.096;20.082;2023-04-25T14:57:09;97934.40;;;11.02
67822;BMP180;54434;50.096;20.082;2023-04-25T14:59:46;97936.00;;;10.90
67822;BMP180;54434;50.096;20.082;2023-04-25T15:02:23;97939.80;;;10.80
67822;BMP180;54434;50.096;20.082;2023-04-25T15:04:59;97941.20;;;10.80
67822;BMP180;54434;50.096;20.082;2023-04-25T15:07:36;97937.00;;;10.70
67822;BMP180;54434;50.096;20.082;2023-04-25T15:10:16;97937.60;;;10.62
67822;BMP180;54434;50.096;20.082;2023-04-25T15:12:53;97938.40;;;10.60
67822;BMP180;54434;50.096;20.082;2023-04-25T15:15:30;97935.80;;;10.60
67822;BMP180;54434;50.096;20.082;2023-04-25T15:18:07;97936.20;;;10.60